createdAt,value
2019-05-09T00:02:15.023Z,3.77
2019-05-09T00:04:56.124Z,2.90
2019-05-09T00:07:33.970Z,4.47
2019-05-09T00:10:11.529Z,5.13
2019-05-09T00:12:46.001Z,4.13
2019-05-09T00:15:20.829Z,2.70
2019-05-09T00:18:03.678Z,4.40
2019-05-09T00:20:43.698Z,5.13
2019-05-09T00:23:26.105Z,6.57
2019-05-09T00:26:04.125Z,3.23
2019-05-09T00:28:44.196Z,6.13
2019-05-09T00:31:25.717Z,3.07
2019-05-09T00:34:00.029Z,5.67
2019-05-09T00:36:33.937Z,6.30
2019-05-09T00:39:06.191Z,3.73
2019-05-09T00:41:37.793Z,4.93
2019-05-09T00:44:10.102Z,3.90
2019-05-09T00:46:43.141Z,5.03
2019-05-09T00:49:16.512Z,3.97
2019-05-09T00:51:47.256Z,3.30
2019-05-09T00:54:17.815Z,3.37
2019-05-09T00:56:48.587Z,6.83
2019-05-09T00:59:33.169Z,3.70
2019-05-09T01:02:04.086Z,6.17
2019-05-09T01:04:34.747Z,3.27
2019-05-09T01:07:05.575Z,3.67
2019-05-09T01:09:36.066Z,4.93
2019-05-09T01:12:06.787Z,4.77
2019-05-09T01:14:37.389Z,3.30
2019-05-09T01:17:08.023Z,5.33
2019-05-09T01:19:38.604Z,5.33
2019-05-09T01:22:13.315Z,5.60
2019-05-09T01:24:45.092Z,5.40
2019-05-09T01:27:15.661Z,5.60
2019-05-09T01:29:48.207Z,8.20
2019-05-09T01:32:36.400Z,6.67
2019-05-09T01:35:07.015Z,4.97
2019-05-09T01:37:37.664Z,4.73
2019-05-09T01:40:08.355Z,5.03
2019-05-09T01:42:43.087Z,4.73
2019-05-09T01:45:14.199Z,5.20
2019-05-09T01:47:44.889Z,4.43
2019-05-09T01:50:19.629Z,7.50
2019-05-09T01:52:50.258Z,5.77
2019-05-09T01:55:23.496Z,8.10
2019-05-09T01:57:54.190Z,4.70
2019-05-09T02:00:25.066Z,4.97
2019-05-09T02:02:56.821Z,5.83
2019-05-09T02:05:43.493Z,5.70
2019-05-09T02:08:14.384Z,6.40
2019-05-09T02:10:45.096Z,5.30
2019-05-09T02:13:19.163Z,6.23
2019-05-09T02:16:03.670Z,4.30
2019-05-09T02:18:38.312Z,7.87
2019-05-09T02:21:11.483Z,4.87
2019-05-09T02:23:43.163Z,5.40
2019-05-09T02:26:15.551Z,6.77
2019-05-09T02:28:46.119Z,6.40
2019-05-09T02:31:16.770Z,5.97
2019-05-09T02:33:54.656Z,4.80
2019-05-09T02:36:25.315Z,5.17
2019-05-09T02:39:09.182Z,6.10
2019-05-09T02:41:58.928Z,6.93
2019-05-09T02:44:12.418Z,9.20
2019-05-09T02:46:53.655Z,4.73
2019-05-09T02:49:24.243Z,5.53
2019-05-09T02:52:12.012Z,6.27
2019-05-09T02:54:42.669Z,7.90
2019-05-09T02:57:13.293Z,6.13
2019-05-09T03:00:03.845Z,6.43
2019-05-09T03:02:43.289Z,8.20
2019-05-09T03:05:14.106Z,5.80
2019-05-09T03:07:50.721Z,10.47
2019-05-09T03:10:22.423Z,5.70
2019-05-09T03:12:53.126Z,10.03
2019-05-09T03:15:31.061Z,8.63
2019-05-09T03:18:01.876Z,8.20
2019-05-09T03:20:34.156Z,7.07
2019-05-09T03:23:04.684Z,6.97
2019-05-09T03:25:40.530Z,11.07
2019-05-09T03:28:28.684Z,7.00
2019-05-09T03:31:10.024Z,10.23
2019-05-09T03:33:41.118Z,8.30
2019-05-09T03:36:11.832Z,9.33
2019-05-09T03:38:44.386Z,8.57
2019-05-09T03:41:19.850Z,7.53
2019-05-09T03:44:20.573Z,7.03
2019-05-09T03:47:13.173Z,5.60
2019-05-09T03:49:43.776Z,8.53
2019-05-09T03:52:17.675Z,6.63
2019-05-09T03:54:53.574Z,8.33
2019-05-09T03:57:28.909Z,11.33
2019-05-09T03:59:59.507Z,8.87
2019-05-09T04:02:30.170Z,8.53
2019-05-09T04:05:00.760Z,7.30
2019-05-09T04:07:32.422Z,7.43
2019-05-09T04:10:07.830Z,8.13
2019-05-09T04:12:52.844Z,7.67
2019-05-09T04:15:10.856Z,8.07
2019-05-09T04:17:44.033Z,9.53
2019-05-09T04:20:14.894Z,6.83
2019-05-09T04:22:59.309Z,7.17
2019-05-09T04:25:31.956Z,6.40
2019-05-09T04:28:03.681Z,7.13
2019-05-09T04:30:34.360Z,11.03
2019-05-09T04:33:09.731Z,11.13
2019-05-09T04:35:49.203Z,4.70
2019-05-09T04:38:24.793Z,8.63
2019-05-09T04:40:55.566Z,7.87
2019-05-09T04:43:35.544Z,8.97
2019-05-09T04:46:01.288Z,6.47
2019-05-09T04:48:37.364Z,8.80
2019-05-09T04:51:15.433Z,11.00
2019-05-09T04:53:47.966Z,8.03
2019-05-09T04:56:19.950Z,5.77
2019-05-09T04:58:58.176Z,8.10
2019-05-09T05:01:38.759Z,9.27
2019-05-09T05:04:08.448Z,7.10
2019-05-09T05:06:40.590Z,6.23
2019-05-09T05:09:11.364Z,9.97
2019-05-09T05:11:42.061Z,11.57
2019-05-09T05:14:22.930Z,8.90
2019-05-09T05:17:07.687Z,11.20
2019-05-09T05:19:35.544Z,9.43
2019-05-09T05:22:13.540Z,6.60
2019-05-09T05:24:48.770Z,7.53
2019-05-09T05:27:19.098Z,8.10
2019-05-09T05:29:49.758Z,10.33
2019-05-09T05:32:32.160Z,6.03
2019-05-09T05:35:04.455Z,7.93
2019-05-09T05:37:35.028Z,7.23
2019-05-09T05:40:07.806Z,11.20
2019-05-09T05:42:44.354Z,8.67
2019-05-09T05:45:18.272Z,6.20
2019-05-09T05:47:57.719Z,9.60
2019-05-09T05:50:28.431Z,7.70
2019-05-09T05:52:59.175Z,12.27
2019-05-09T05:55:29.781Z,8.90
2019-05-09T05:58:08.785Z,11.93
2019-05-09T06:00:43.560Z,9.40
2019-05-09T06:03:17.805Z,4.47
2019-05-09T06:05:58.226Z,7.50
2019-05-09T06:08:28.319Z,5.43
2019-05-09T06:10:59.886Z,7.10
2019-05-09T06:13:34.907Z,6.20
2019-05-09T06:16:08.564Z,6.67
2019-05-09T06:18:39.385Z,6.70
2019-05-09T06:21:10.209Z,6.50
2019-05-09T06:23:48.320Z,7.07
2019-05-09T06:26:21.021Z,5.93
2019-05-09T06:28:57.677Z,5.20
2019-05-09T06:31:29.656Z,8.23
2019-05-09T06:34:15.548Z,9.00
2019-05-09T06:36:48.642Z,9.70
2019-05-09T06:39:25.575Z,6.13
2019-05-09T06:42:10.146Z,7.93
2019-05-09T06:44:49.374Z,4.03
2019-05-09T06:47:22.608Z,4.70
2019-05-09T06:49:57.439Z,8.03
2019-05-09T06:52:28.330Z,5.80
2019-05-09T06:54:59.112Z,7.83
2019-05-09T06:57:29.633Z,3.93
2019-05-09T07:00:00.275Z,7.40
2019-05-09T07:02:32.582Z,7.07
2019-05-09T07:05:08.387Z,5.80
2019-05-09T07:07:57.502Z,6.17
2019-05-09T07:10:28.426Z,5.73
2019-05-09T07:12:59.939Z,5.53
2019-05-09T07:15:30.682Z,6.70
2019-05-09T07:18:01.268Z,5.13
2019-05-09T07:20:33.993Z,7.47
2019-05-09T07:23:04.664Z,6.17
2019-05-09T07:25:44.927Z,6.93
2019-05-09T07:28:17.988Z,7.40
2019-05-09T07:30:53.380Z,5.73
2019-05-09T07:33:28.715Z,6.27
2019-05-09T07:35:59.304Z,5.10
2019-05-09T07:38:32.638Z,4.57
2019-05-09T07:41:03.309Z,6.00
2019-05-09T07:43:33.964Z,7.40
2019-05-09T07:46:21.743Z,7.37
2019-05-09T07:49:03.257Z,4.17
2019-05-09T07:51:33.982Z,6.63
2019-05-09T07:54:21.253Z,5.70
2019-05-09T07:56:38.014Z,10.47
2019-05-09T07:59:08.644Z,6.93
2019-05-09T08:01:39.231Z,7.23
2019-05-09T08:04:09.783Z,8.93
2019-05-09T08:06:40.510Z,5.47
2019-05-09T08:09:11.178Z,8.33
2019-05-09T08:11:41.826Z,6.33
2019-05-09T08:14:12.440Z,7.50
2019-05-09T08:16:43.101Z,6.97
2019-05-09T08:19:13.797Z,4.17
2019-05-09T08:21:44.342Z,6.53
2019-05-09T08:24:14.969Z,3.83
2019-05-09T08:26:47.661Z,7.07
2019-05-09T08:29:20.053Z,6.33
2019-05-09T08:31:50.469Z,7.93
2019-05-09T08:34:21.038Z,7.23
2019-05-09T08:36:51.736Z,5.50
2019-05-09T08:39:22.400Z,6.13
2019-05-09T08:41:54.044Z,4.37
2019-05-09T08:44:24.581Z,2.60
2019-05-09T08:46:57.281Z,5.60
2019-05-09T08:49:37.385Z,7.90
2019-05-09T08:52:15.782Z,4.03
2019-05-09T08:54:45.406Z,4.13
2019-05-09T08:57:18.257Z,3.93
2019-05-09T09:00:13.343Z,4.83
2019-05-09T09:02:45.022Z,7.03
2019-05-09T09:05:18.449Z,4.90
2019-05-09T09:07:51.246Z,8.67
2019-05-09T09:10:21.921Z,5.33
2019-05-09T09:12:52.517Z,3.70
2019-05-09T09:15:23.089Z,6.27
2019-05-09T09:17:53.660Z,5.07
2019-05-09T09:20:24.283Z,4.57
2019-05-09T09:22:54.923Z,5.47
2019-05-09T09:25:25.480Z,4.23
2019-05-09T09:27:58.246Z,9.67
2019-05-09T09:30:29.427Z,6.83
2019-05-09T09:33:00.307Z,4.30
2019-05-09T09:35:30.912Z,6.27
2019-05-09T09:38:01.608Z,4.13
2019-05-09T09:40:53.281Z,3.93
2019-05-09T09:43:23.876Z,4.33
2019-05-09T09:46:10.919Z,4.40
2019-05-09T09:48:38.944Z,5.97
2019-05-09T09:51:09.565Z,5.90
2019-05-09T09:53:40.357Z,2.40
2019-05-09T09:56:12.030Z,4.47
2019-05-09T09:58:44.328Z,6.60
2019-05-09T10:01:18.088Z,2.50
2019-05-09T10:03:50.575Z,4.20
2019-05-09T10:06:21.245Z,2.00
2019-05-09T10:08:51.826Z,4.57
2019-05-09T10:11:23.417Z,4.03
2019-05-09T10:13:54.005Z,6.13
2019-05-09T10:16:30.022Z,6.60
2019-05-09T10:19:08.298Z,3.93
2019-05-09T10:21:43.627Z,2.33
2019-05-09T10:24:17.355Z,3.40
2019-05-09T10:27:08.643Z,3.03
2019-05-09T10:29:39.742Z,3.33
2019-05-09T10:32:18.446Z,2.33
2019-05-09T10:35:08.951Z,1.60
2019-05-09T10:37:44.606Z,0.80
2019-05-09T10:40:23.552Z,3.13
2019-05-09T10:42:58.478Z,1.97
2019-05-09T10:45:39.934Z,3.13
2019-05-09T10:48:08.325Z,2.87
2019-05-09T10:50:44.694Z,1.70
2019-05-09T10:53:13.358Z,3.77
2019-05-09T10:55:45.008Z,2.43
2019-05-09T10:58:20.204Z,3.87
2019-05-09T11:00:58.746Z,4.40
2019-05-09T11:03:29.124Z,3.40
2019-05-09T11:06:05.250Z,2.57
2019-05-09T11:08:38.094Z,1.60
2019-05-09T11:11:09.454Z,3.00
2019-05-09T11:13:42.276Z,2.23
2019-05-09T11:16:12.981Z,4.23
2019-05-09T11:18:43.642Z,1.73
2019-05-09T11:21:14.358Z,1.87
2019-05-09T11:24:03.224Z,3.27
2019-05-09T11:26:33.938Z,2.87
2019-05-09T11:29:19.939Z,2.67
2019-05-09T11:31:50.524Z,5.97
2019-05-09T11:34:26.976Z,2.77
2019-05-09T11:36:58.039Z,3.77
2019-05-09T11:41:02.130Z,3.33
2019-05-09T11:42:02.232Z,2.60
2019-05-09T11:44:32.870Z,4.03
2019-05-09T11:47:04.477Z,4.00
2019-05-09T11:49:48.135Z,3.97
2019-05-09T11:52:19.588Z,2.50
2019-05-09T11:54:50.172Z,3.67
2019-05-09T11:57:20.835Z,4.70
2019-05-09T11:59:53.521Z,5.00
2019-05-09T12:02:25.173Z,16.90
2019-05-09T12:04:56.840Z,6.17
2019-05-09T12:07:28.849Z,11.17
2019-05-09T12:09:59.580Z,10.87
2019-05-09T12:12:30.186Z,2.97
2019-05-09T12:15:00.866Z,2.50
2019-05-09T12:17:57.880Z,3.93
2019-05-09T12:20:27.684Z,3.90
2019-05-09T12:22:59.434Z,4.77
2019-05-09T12:25:30.120Z,2.33
2019-05-09T12:28:02.819Z,2.83
2019-05-09T12:30:38.117Z,6.57
2019-05-09T12:33:11.983Z,3.20
2019-05-09T12:35:42.575Z,2.30
2019-05-09T12:38:13.143Z,2.80
2019-05-09T12:40:48.313Z,5.33
2019-05-09T12:43:18.903Z,4.07
2019-05-09T12:45:50.557Z,2.83
2019-05-09T12:48:21.370Z,2.53
2019-05-09T12:50:58.554Z,2.07
2019-05-09T12:53:32.655Z,2.33
2019-05-09T12:56:03.536Z,1.80
2019-05-09T12:58:34.251Z,4.20
2019-05-09T13:01:07.529Z,2.63
2019-05-09T13:03:38.458Z,2.97
2019-05-09T13:06:09.376Z,2.30
2019-05-09T13:08:40.036Z,2.60
2019-05-09T13:11:10.706Z,2.33
2019-05-09T13:13:41.678Z,3.10
2019-05-09T13:16:43.405Z,2.83
2019-05-09T13:19:06.753Z,3.27
2019-05-09T13:21:38.908Z,3.13
2019-05-09T13:24:09.751Z,2.60
2019-05-09T13:26:42.824Z,5.03
2019-05-09T13:29:38.097Z,3.57
2019-05-09T13:32:08.744Z,4.60
2019-05-09T13:34:52.842Z,3.00
2019-05-09T13:37:24.414Z,5.03
2019-05-09T13:40:02.907Z,2.93
2019-05-09T13:42:39.462Z,2.80
2019-05-09T13:45:20.039Z,3.23
2019-05-09T13:47:51.562Z,3.60
2019-05-09T13:50:32.077Z,4.33
2019-05-09T13:53:02.738Z,3.13
2019-05-09T13:55:33.329Z,3.67
2019-05-09T13:58:10.877Z,4.63
2019-05-09T14:00:55.760Z,4.23
2019-05-09T14:03:14.870Z,4.90
2019-05-09T14:05:47.942Z,3.87
2019-05-09T14:08:18.820Z,8.53
2019-05-09T14:10:49.468Z,3.83
2019-05-09T14:13:23.367Z,4.20
2019-05-09T14:15:57.647Z,3.87
2019-05-09T14:18:31.399Z,5.47
2019-05-09T14:21:07.767Z,4.53
2019-05-09T14:24:14.077Z,5.43
2019-05-09T14:26:35.168Z,5.43
2019-05-09T14:29:05.809Z,5.97
2019-05-09T14:31:55.910Z,5.20
2019-05-09T14:34:26.478Z,5.33
2019-05-09T14:37:02.885Z,8.20
2019-05-09T14:39:34.481Z,6.37
2019-05-09T14:42:05.191Z,6.27
2019-05-09T14:44:37.713Z,7.20
2019-05-09T14:47:08.539Z,5.20
2019-05-09T14:49:44.000Z,6.03
2019-05-09T14:52:13.380Z,6.23
2019-05-09T14:54:44.084Z,4.40
2019-05-09T14:57:22.891Z,7.07
2019-05-09T14:59:58.447Z,5.20
2019-05-09T15:02:29.384Z,6.87
2019-05-09T15:05:02.611Z,5.13
2019-05-09T15:07:33.968Z,5.60
2019-05-09T15:10:05.416Z,5.07
2019-05-09T15:12:42.020Z,6.57
2019-05-09T15:15:12.639Z,6.70
2019-05-09T15:17:43.315Z,7.13
2019-05-09T15:20:18.036Z,3.27
2019-05-09T15:23:02.709Z,4.27
2019-05-09T15:25:38.939Z,6.70
2019-05-09T15:28:11.651Z,6.50
2019-05-09T15:30:48.703Z,5.53
2019-05-09T15:33:18.228Z,5.53
2019-05-09T15:35:59.568Z,3.63
2019-05-09T15:38:30.255Z,2.80
2019-05-09T15:41:01.019Z,4.73
2019-05-09T15:43:44.807Z,4.50
2019-05-09T15:46:18.691Z,4.80
2019-05-09T15:48:58.629Z,4.20
2019-05-09T15:51:32.143Z,5.27
2019-05-09T15:54:04.034Z,4.33
2019-05-09T15:56:34.799Z,3.17
2019-05-09T15:59:18.180Z,2.87
2019-05-09T16:01:50.769Z,3.10
2019-05-09T16:04:21.637Z,4.17
2019-05-09T16:06:57.563Z,3.47
2019-05-09T16:09:28.687Z,3.50
2019-05-09T16:11:59.365Z,2.47
2019-05-09T16:14:29.995Z,3.57
2019-05-09T16:17:07.948Z,4.77
2019-05-09T16:19:40.678Z,3.30
2019-05-09T16:22:11.341Z,2.87
2019-05-09T16:24:42.020Z,3.50
2019-05-09T16:27:20.661Z,2.97
2019-05-09T16:29:53.538Z,3.90
2019-05-09T16:32:37.483Z,2.47
2019-05-09T16:35:10.848Z,2.37
2019-05-09T16:37:58.391Z,2.63
2019-05-09T16:40:13.696Z,5.10
2019-05-09T16:42:47.547Z,2.33
2019-05-09T16:45:18.338Z,1.70
2019-05-09T16:47:57.515Z,2.40
2019-05-09T16:50:28.239Z,2.97
2019-05-09T16:52:58.917Z,2.77
2019-05-09T16:55:43.790Z,4.80
2019-05-09T16:58:20.164Z,5.30
2019-05-09T17:00:52.648Z,4.57
2019-05-09T17:03:23.311Z,2.40
2019-05-09T17:05:53.998Z,4.20
2019-05-09T17:08:24.658Z,4.47
2019-05-09T17:11:09.396Z,3.13
2019-05-09T17:13:42.104Z,2.50
2019-05-09T17:16:12.798Z,1.90
2019-05-09T17:18:49.955Z,2.23
2019-05-09T17:21:28.225Z,1.77
2019-05-09T17:24:01.639Z,2.00
2019-05-09T17:26:32.274Z,3.47
2019-05-09T17:29:05.142Z,2.93
2019-05-09T17:31:38.378Z,2.77
2019-05-09T17:34:09.797Z,2.00
2019-05-09T17:36:40.651Z,2.40
2019-05-09T17:39:11.253Z,3.07
2019-05-09T17:41:41.960Z,2.53
2019-05-09T17:44:20.023Z,3.80
2019-05-09T17:46:57.759Z,3.10
2019-05-09T17:49:28.161Z,4.40
2019-05-09T17:51:58.877Z,3.10
2019-05-09T17:54:29.571Z,6.20
2019-05-09T17:57:00.350Z,3.80
2019-05-09T17:59:35.036Z,4.03
2019-05-09T18:02:05.847Z,3.00
2019-05-09T18:04:37.954Z,5.67
2019-05-09T18:07:10.696Z,5.90
2019-05-09T18:09:44.419Z,4.43
2019-05-09T18:12:15.168Z,6.97
2019-05-09T18:14:51.958Z,5.17
2019-05-09T18:17:22.562Z,5.30
2019-05-09T18:20:08.052Z,6.80
2019-05-09T18:22:39.989Z,5.57
2019-05-09T18:25:25.861Z,9.57
2019-05-09T18:27:58.892Z,12.00
2019-05-09T18:30:30.015Z,9.67
2019-05-09T18:33:02.592Z,11.87
2019-05-09T18:35:40.223Z,7.90
2019-05-09T18:38:17.425Z,11.73
2019-05-09T18:40:48.285Z,9.97
2019-05-09T18:43:18.989Z,7.63
2019-05-09T18:45:54.614Z,9.20
2019-05-09T18:48:27.783Z,7.40
2019-05-09T18:50:58.635Z,8.77
2019-05-09T18:53:34.214Z,9.47
2019-05-09T18:56:04.799Z,8.47
2019-05-09T18:58:38.481Z,9.33
2019-05-09T19:01:17.256Z,6.10
2019-05-09T19:03:48.022Z,4.17
2019-05-09T19:06:21.892Z,4.20
2019-05-09T19:08:54.857Z,6.77
2019-05-09T19:11:32.651Z,6.00
2019-05-09T19:14:04.955Z,8.27
2019-05-09T19:16:43.111Z,7.03
2019-05-09T19:19:15.352Z,5.90
2019-05-09T19:21:47.676Z,5.80
2019-05-09T19:24:18.532Z,6.43
2019-05-09T19:26:57.228Z,6.83
2019-05-09T19:29:34.609Z,8.53
2019-05-09T19:32:12.045Z,8.50
2019-05-09T19:34:45.050Z,9.80
2019-05-09T19:37:16.227Z,7.87
2019-05-09T19:39:46.884Z,6.87
2019-05-09T19:42:17.519Z,5.07
2019-05-09T19:44:53.895Z,7.80
2019-05-09T19:47:24.654Z,4.77
2019-05-09T19:50:00.796Z,5.97
2019-05-09T19:52:38.260Z,4.10
2019-05-09T19:55:03.843Z,5.17
2019-05-09T19:57:38.691Z,5.43
2019-05-09T20:00:12.638Z,7.33
2019-05-09T20:03:05.274Z,7.37
2019-05-09T20:05:36.071Z,6.53
2019-05-09T20:08:23.530Z,6.03
2019-05-09T20:11:07.884Z,9.30
2019-05-09T20:13:42.168Z,7.50
2019-05-09T20:16:12.849Z,8.07
2019-05-09T20:18:43.503Z,6.67
2019-05-09T20:21:15.225Z,5.83
2019-05-09T20:23:52.178Z,5.83
2019-05-09T20:26:26.695Z,4.57
2019-05-09T20:28:57.365Z,8.37
2019-05-09T20:31:29.170Z,4.93
2019-05-09T20:33:59.771Z,4.20
2019-05-09T20:36:42.011Z,6.33
2019-05-09T20:39:19.956Z,6.67
2019-05-09T20:41:57.630Z,6.03
2019-05-09T20:44:32.710Z,9.47
2019-05-09T20:47:03.738Z,6.93
2019-05-09T20:49:34.824Z,6.33
2019-05-09T20:52:06.853Z,10.83
2019-05-09T20:54:37.647Z,6.67
2019-05-09T20:57:11.795Z,8.07
2019-05-09T20:59:42.705Z,8.90
2019-05-09T21:02:25.925Z,9.60
2019-05-09T21:05:09.122Z,7.00
2019-05-09T21:07:41.089Z,10.67
2019-05-09T21:10:12.091Z,10.27
2019-05-09T21:12:49.650Z,9.20
2019-05-09T21:15:20.494Z,10.87
2019-05-09T21:17:51.452Z,13.30
2019-05-09T21:20:22.333Z,11.00
2019-05-09T21:22:53.259Z,10.67
2019-05-09T21:25:24.241Z,9.17
2019-05-09T21:27:56.050Z,10.20
2019-05-09T21:30:27.211Z,11.10
2019-05-09T21:33:06.296Z,15.07
2019-05-09T21:35:52.194Z,10.47
2019-05-09T21:38:24.128Z,12.87
2019-05-09T21:40:54.718Z,12.47
2019-05-09T21:43:26.635Z,12.27
2019-05-09T21:45:58.978Z,10.10
2019-05-09T21:48:38.497Z,10.97
2019-05-09T21:51:09.082Z,9.63
2019-05-09T21:53:55.681Z,8.47
2019-05-09T21:56:27.932Z,12.13
2019-05-09T21:58:59.528Z,9.43
2019-05-09T22:01:32.227Z,10.30
2019-05-09T22:04:08.398Z,12.83
2019-05-09T22:06:40.335Z,12.73
2019-05-09T22:09:11.461Z,11.53
2019-05-09T22:11:47.042Z,10.83
2019-05-09T22:14:18.141Z,15.67
2019-05-09T22:16:49.341Z,15.57
2019-05-09T22:19:31.298Z,11.33
2019-05-09T22:22:06.959Z,15.63
2019-05-09T22:24:38.959Z,15.43
2019-05-09T22:27:09.969Z,15.27
2019-05-09T22:29:40.739Z,15.37
2019-05-09T22:32:13.489Z,14.30
2019-05-09T22:34:50.332Z,15.57
2019-05-09T22:37:21.254Z,13.70
2019-05-09T22:39:53.987Z,15.57
2019-05-09T22:42:24.645Z,12.90
2019-05-09T22:44:55.228Z,13.47
2019-05-09T22:47:25.985Z,16.57
2019-05-09T22:49:56.705Z,15.27
2019-05-09T22:52:27.328Z,18.10
2019-05-09T22:54:57.930Z,18.30
2019-05-09T22:57:28.515Z,13.80
2019-05-09T22:59:59.157Z,13.43
2019-05-09T23:02:29.786Z,8.60
2019-05-09T23:05:00.582Z,9.33
2019-05-09T23:07:32.295Z,11.53
2019-05-09T23:10:03.017Z,10.83
2019-05-09T23:12:38.626Z,8.77
2019-05-09T23:15:11.050Z,11.03
2019-05-09T23:17:41.620Z,10.67
2019-05-09T23:20:30.021Z,12.90
2019-05-09T23:23:02.252Z,12.77
2019-05-09T23:25:32.819Z,12.47
2019-05-09T23:28:04.069Z,13.67
2019-05-09T23:30:40.796Z,13.97
2019-05-09T23:33:12.508Z,16.30
2019-05-09T23:35:43.074Z,11.70
2019-05-09T23:38:23.384Z,14.00
2019-05-09T23:40:54.075Z,17.30
2019-05-09T23:43:24.666Z,11.57
2019-05-09T23:45:55.354Z,15.33
2019-05-09T23:48:25.945Z,19.03
2019-05-09T23:50:56.524Z,13.73
2019-05-09T23:53:32.973Z,13.93
2019-05-09T23:56:33.819Z,15.70
2019-05-09T23:59:22.557Z,15.50
